sensor_id;sensor_type;location;lat;lon;timestamp;P1;durP1;ratioP1;P2;durP2;ratioP2
52031;SDS011;38044;45.148;39.604;2023-12-20T00:01:27;18.55;;;12.00;;
52031;SDS011;38044;45.148;39.604;2023-12-20T00:03:52;18.02;;;11.80;;
52031;SDS011;38044;45.148;39.604;2023-12-20T00:06:18;18.27;;;11.75;;
52031;SDS011;38044;45.148;39.604;2023-12-20T00:08:44;16.58;;;11.15;;
52031;SDS011;38044;45.148;39.604;2023-12-20T00:11:10;16.40;;;10.88;;
52031;SDS011;38044;45.148;39.604;2023-12-20T00:13:36;18.00;;;11.98;;
52031;SDS011;38044;45.148;39.604;2023-12-20T00:16:02;18.38;;;11.70;;
52031;SDS011;38044;45.148;39.604;2023-12-20T00:18:28;17.58;;;11.52;;
52031;SDS011;38044;45.148;39.604;2023-12-20T00:20:54;19.42;;;11.80;;
52031;SDS011;38044;45.148;39.604;2023-12-20T00:23:20;17.42;;;11.63;;
52031;SDS011;38044;45.148;39.604;2023-12-20T00:25:46;17.33;;;11.32;;
52031;SDS011;38044;45.148;39.604;2023-12-20T00:28:12;17.67;;;11.48;;
52031;SDS011;38044;45.148;39.604;2023-12-20T00:30:38;16.92;;;11.45;;
52031;SDS011;38044;45.148;39.604;2023-12-20T00:33:04;18.50;;;12.18;;
52031;SDS011;38044;45.148;39.604;2023-12-20T00:35:29;16.13;;;11.63;;
52031;SDS011;38044;45.148;39.604;2023-12-20T00:37:55;16.45;;;11.02;;
52031;SDS011;38044;45.148;39.604;2023-12-20T00:40:21;19.25;;;11.50;;
52031;SDS011;38044;45.148;39.604;2023-12-20T00:42:47;23.42;;;13.82;;
52031;SDS011;38044;45.148;39.604;2023-12-20T00:45:13;20.70;;;13.52;;
52031;SDS011;38044;45.148;39.604;2023-12-20T00:47:39;22.65;;;14.35;;
52031;SDS011;38044;45.148;39.604;2023-12-20T00:50:06;21.25;;;13.60;;
52031;SDS011;38044;45.148;39.604;2023-12-20T00:52:32;21.70;;;14.35;;
52031;SDS011;38044;45.148;39.604;2023-12-20T00:54:58;18.95;;;12.65;;
52031;SDS011;38044;45.148;39.604;2023-12-20T00:57:24;20.27;;;13.10;;
52031;SDS011;38044;45.148;39.604;2023-12-20T00:59:50;19.35;;;12.27;;
52031;SDS011;38044;45.148;39.604;2023-12-20T01:02:16;19.83;;;11.63;;
52031;SDS011;38044;45.148;39.604;2023-12-20T01:04:42;17.45;;;11.98;;
52031;SDS011;38044;45.148;39.604;2023-12-20T01:07:08;16.88;;;11.15;;
52031;SDS011;38044;45.148;39.604;2023-12-20T01:09:34;17.83;;;10.68;;
52031;SDS011;38044;45.148;39.604;2023-12-20T01:12:00;14.85;;;9.88;;
52031;SDS011;38044;45.148;39.604;2023-12-20T01:14:26;14.55;;;9.85;;
52031;SDS011;38044;45.148;39.604;2023-12-20T01:16:52;14.20;;;9.20;;
52031;SDS011;38044;45.148;39.604;2023-12-20T01:19:17;12.63;;;9.40;;
52031;SDS011;38044;45.148;39.604;2023-12-20T01:21:43;15.43;;;9.35;;
52031;SDS011;38044;45.148;39.604;2023-12-20T01:24:09;13.45;;;8.75;;
52031;SDS011;38044;45.148;39.604;2023-12-20T01:26:35;12.27;;;8.73;;
52031;SDS011;38044;45.148;39.604;2023-12-20T01:29:01;13.98;;;9.00;;
52031;SDS011;38044;45.148;39.604;2023-12-20T01:31:27;15.63;;;9.23;;
52031;SDS011;38044;45.148;39.604;2023-12-20T01:33:53;12.90;;;8.60;;
52031;SDS011;38044;45.148;39.604;2023-12-20T01:36:19;12.60;;;8.93;;
52031;SDS011;38044;45.148;39.604;2023-12-20T01:38:45;9.88;;;7.53;;
52031;SDS011;38044;45.148;39.604;2023-12-20T01:41:10;11.93;;;7.72;;
52031;SDS011;38044;45.148;39.604;2023-12-20T01:43:36;13.32;;;8.35;;
52031;SDS011;38044;45.148;39.604;2023-12-20T01:46:02;10.32;;;7.57;;
52031;SDS011;38044;45.148;39.604;2023-12-20T01:48:28;10.25;;;7.70;;
52031;SDS011;38044;45.148;39.604;2023-12-20T01:50:57;12.43;;;7.97;;
52031;SDS011;38044;45.148;39.604;2023-12-20T01:53:25;12.02;;;7.80;;
52031;SDS011;38044;45.148;39.604;2023-12-20T01:55:52;11.18;;;7.20;;
52031;SDS011;38044;45.148;39.604;2023-12-20T01:58:20;9.73;;;7.18;;
52031;SDS011;38044;45.148;39.604;2023-12-20T02:00:47;12.95;;;8.10;;
52031;SDS011;38044;45.148;39.604;2023-12-20T02:03:14;11.05;;;7.75;;
52031;SDS011;38044;45.148;39.604;2023-12-20T02:05:41;11.23;;;7.95;;
52031;SDS011;38044;45.148;39.604;2023-12-20T02:08:06;17.88;;;9.13;;
52031;SDS011;38044;45.148;39.604;2023-12-20T02:10:32;16.70;;;9.10;;
52031;SDS011;38044;45.148;39.604;2023-12-20T02:12:59;15.15;;;9.98;;
52031;SDS011;38044;45.148;39.604;2023-12-20T02:15:25;15.57;;;10.02;;
52031;SDS011;38044;45.148;39.604;2023-12-20T02:17:51;15.65;;;10.20;;
52031;SDS011;38044;45.148;39.604;2023-12-20T02:20:17;15.30;;;10.63;;
52031;SDS011;38044;45.148;39.604;2023-12-20T02:22:43;13.52;;;9.40;;
52031;SDS011;38044;45.148;39.604;2023-12-20T02:25:09;14.50;;;9.98;;
52031;SDS011;38044;45.148;39.604;2023-12-20T02:27:35;14.27;;;9.30;;
52031;SDS011;38044;45.148;39.604;2023-12-20T02:30:01;15.55;;;10.00;;
52031;SDS011;38044;45.148;39.604;2023-12-20T02:32:27;16.75;;;9.60;;
52031;SDS011;38044;45.148;39.604;2023-12-20T02:34:54;13.35;;;8.57;;
52031;SDS011;38044;45.148;39.604;2023-12-20T02:37:20;15.40;;;9.32;;
52031;SDS011;38044;45.148;39.604;2023-12-20T02:39:46;13.52;;;9.02;;
52031;SDS011;38044;45.148;39.604;2023-12-20T02:42:12;14.38;;;8.65;;
52031;SDS011;38044;45.148;39.604;2023-12-20T02:44:38;15.82;;;9.55;;
52031;SDS011;38044;45.148;39.604;2023-12-20T02:47:04;12.60;;;9.15;;
52031;SDS011;38044;45.148;39.604;2023-12-20T02:49:30;14.20;;;8.27;;
52031;SDS011;38044;45.148;39.604;2023-12-20T02:51:56;13.57;;;8.30;;
52031;SDS011;38044;45.148;39.604;2023-12-20T02:54:21;13.38;;;9.15;;
52031;SDS011;38044;45.148;39.604;2023-12-20T02:56:47;13.23;;;8.80;;
52031;SDS011;38044;45.148;39.604;2023-12-20T02:59:13;10.93;;;7.70;;
52031;SDS011;38044;45.148;39.604;2023-12-20T03:01:43;13.95;;;8.73;;
52031;SDS011;38044;45.148;39.604;2023-12-20T03:04:11;12.65;;;7.93;;
52031;SDS011;38044;45.148;39.604;2023-12-20T03:06:37;13.77;;;8.65;;
52031;SDS011;38044;45.148;39.604;2023-12-20T03:09:03;13.02;;;8.48;;
52031;SDS011;38044;45.148;39.604;2023-12-20T03:11:29;12.30;;;8.68;;
52031;SDS011;38044;45.148;39.604;2023-12-20T03:13:56;11.82;;;7.65;;
52031;SDS011;38044;45.148;39.604;2023-12-20T03:16:22;15.85;;;8.65;;
52031;SDS011;38044;45.148;39.604;2023-12-20T03:18:48;12.35;;;8.25;;
52031;SDS011;38044;45.148;39.604;2023-12-20T03:21:14;13.68;;;8.13;;
52031;SDS011;38044;45.148;39.604;2023-12-20T03:23:41;13.75;;;8.00;;
52031;SDS011;38044;45.148;39.604;2023-12-20T03:26:07;12.23;;;8.35;;
52031;SDS011;38044;45.148;39.604;2023-12-20T03:28:33;13.10;;;7.32;;
52031;SDS011;38044;45.148;39.604;2023-12-20T03:30:59;13.23;;;7.22;;
52031;SDS011;38044;45.148;39.604;2023-12-20T03:33:27;14.35;;;7.75;;
52031;SDS011;38044;45.148;39.604;2023-12-20T03:35:56;13.60;;;7.60;;
52031;SDS011;38044;45.148;39.604;2023-12-20T03:38:22;10.82;;;8.10;;
52031;SDS011;38044;45.148;39.604;2023-12-20T03:40:51;11.52;;;7.72;;
52031;SDS011;38044;45.148;39.604;2023-12-20T03:43:16;14.20;;;7.30;;
52031;SDS011;38044;45.148;39.604;2023-12-20T03:45:43;12.07;;;7.75;;
52031;SDS011;38044;45.148;39.604;2023-12-20T03:48:09;15.00;;;8.00;;
52031;SDS011;38044;45.148;39.604;2023-12-20T03:50:35;12.15;;;7.18;;
52031;SDS011;38044;45.148;39.604;2023-12-20T03:53:01;11.45;;;8.02;;
52031;SDS011;38044;45.148;39.604;2023-12-20T03:55:27;10.55;;;7.93;;
52031;SDS011;38044;45.148;39.604;2023-12-20T03:57:53;11.77;;;6.95;;
52031;SDS011;38044;45.148;39.604;2023-12-20T04:00:19;12.55;;;7.68;;
52031;SDS011;38044;45.148;39.604;2023-12-20T04:02:45;11.52;;;7.50;;
52031;SDS011;38044;45.148;39.604;2023-12-20T04:05:11;10.75;;;6.72;;
52031;SDS011;38044;45.148;39.604;2023-12-20T04:07:37;12.20;;;6.80;;
52031;SDS011;38044;45.148;39.604;2023-12-20T04:10:03;10.68;;;6.93;;
52031;SDS011;38044;45.148;39.604;2023-12-20T04:12:29;13.13;;;6.60;;
52031;SDS011;38044;45.148;39.604;2023-12-20T04:14:56;12.38;;;7.22;;
52031;SDS011;38044;45.148;39.604;2023-12-20T04:17:22;12.73;;;6.82;;
52031;SDS011;38044;45.148;39.604;2023-12-20T04:19:49;15.70;;;6.53;;
52031;SDS011;38044;45.148;39.604;2023-12-20T04:22:15;11.30;;;6.53;;
52031;SDS011;38044;45.148;39.604;2023-12-20T04:24:42;11.23;;;6.55;;
52031;SDS011;38044;45.148;39.604;2023-12-20T04:27:08;12.00;;;7.30;;
52031;SDS011;38044;45.148;39.604;2023-12-20T04:29:34;11.80;;;6.47;;
52031;SDS011;38044;45.148;39.604;2023-12-20T04:32:00;9.90;;;6.18;;
52031;SDS011;38044;45.148;39.604;2023-12-20T04:34:26;12.90;;;6.75;;
52031;SDS011;38044;45.148;39.604;2023-12-20T04:36:52;12.20;;;6.20;;
52031;SDS011;38044;45.148;39.604;2023-12-20T04:39:18;13.55;;;6.30;;
52031;SDS011;38044;45.148;39.604;2023-12-20T04:41:44;13.50;;;7.30;;
52031;SDS011;38044;45.148;39.604;2023-12-20T04:44:10;13.38;;;6.95;;
52031;SDS011;38044;45.148;39.604;2023-12-20T04:46:36;18.05;;;7.10;;
52031;SDS011;38044;45.148;39.604;2023-12-20T04:49:02;21.52;;;7.68;;
52031;SDS011;38044;45.148;39.604;2023-12-20T04:51:28;20.88;;;7.78;;
52031;SDS011;38044;45.148;39.604;2023-12-20T04:53:54;18.48;;;7.65;;
52031;SDS011;38044;45.148;39.604;2023-12-20T04:56:19;20.20;;;7.82;;
52031;SDS011;38044;45.148;39.604;2023-12-20T04:58:45;21.27;;;7.15;;
52031;SDS011;38044;45.148;39.604;2023-12-20T05:01:12;25.25;;;7.75;;
52031;SDS011;38044;45.148;39.604;2023-12-20T05:03:38;14.20;;;6.95;;
52031;SDS011;38044;45.148;39.604;2023-12-20T05:06:04;14.48;;;6.80;;
52031;SDS011;38044;45.148;39.604;2023-12-20T05:08:30;15.80;;;8.10;;
52031;SDS011;38044;45.148;39.604;2023-12-20T05:10:56;12.02;;;7.38;;
52031;SDS011;38044;45.148;39.604;2023-12-20T05:13:22;15.68;;;6.68;;
52031;SDS011;38044;45.148;39.604;2023-12-20T05:15:48;14.13;;;6.70;;
52031;SDS011;38044;45.148;39.604;2023-12-20T05:18:14;14.77;;;6.47;;
52031;SDS011;38044;45.148;39.604;2023-12-20T05:20:39;17.55;;;5.90;;
52031;SDS011;38044;45.148;39.604;2023-12-20T05:23:05;15.80;;;5.93;;
52031;SDS011;38044;45.148;39.604;2023-12-20T05:25:32;20.42;;;6.60;;
52031;SDS011;38044;45.148;39.604;2023-12-20T05:27:58;16.15;;;6.03;;
52031;SDS011;38044;45.148;39.604;2023-12-20T05:30:23;13.85;;;5.70;;
52031;SDS011;38044;45.148;39.604;2023-12-20T05:32:49;10.85;;;5.95;;
52031;SDS011;38044;45.148;39.604;2023-12-20T05:35:16;18.17;;;5.97;;
52031;SDS011;38044;45.148;39.604;2023-12-20T05:37:42;13.07;;;5.30;;
52031;SDS011;38044;45.148;39.604;2023-12-20T05:40:08;13.15;;;5.50;;
52031;SDS011;38044;45.148;39.604;2023-12-20T05:42:37;15.00;;;5.78;;
52031;SDS011;38044;45.148;39.604;2023-12-20T05:45:03;8.90;;;4.95;;
52031;SDS011;38044;45.148;39.604;2023-12-20T05:47:30;11.32;;;4.85;;
52031;SDS011;38044;45.148;39.604;2023-12-20T05:49:56;7.53;;;4.60;;
52031;SDS011;38044;45.148;39.604;2023-12-20T05:52:22;12.63;;;4.60;;
52031;SDS011;38044;45.148;39.604;2023-12-20T05:54:48;8.43;;;4.30;;
52031;SDS011;38044;45.148;39.604;2023-12-20T05:57:14;9.70;;;4.00;;
52031;SDS011;38044;45.148;39.604;2023-12-20T05:59:40;5.72;;;3.50;;
52031;SDS011;38044;45.148;39.604;2023-12-20T06:02:06;6.22;;;3.58;;
52031;SDS011;38044;45.148;39.604;2023-12-20T06:04:32;8.80;;;3.38;;
52031;SDS011;38044;45.148;39.604;2023-12-20T06:06:58;8.55;;;3.47;;
52031;SDS011;38044;45.148;39.604;2023-12-20T06:09:25;7.72;;;4.53;;
52031;SDS011;38044;45.148;39.604;2023-12-20T06:11:52;6.75;;;3.55;;
52031;SDS011;38044;45.148;39.604;2023-12-20T06:14:18;5.78;;;3.00;;
52031;SDS011;38044;45.148;39.604;2023-12-20T06:16:45;5.28;;;2.92;;
52031;SDS011;38044;45.148;39.604;2023-12-20T06:19:11;7.15;;;3.20;;
52031;SDS011;38044;45.148;39.604;2023-12-20T06:21:36;6.07;;;3.42;;
52031;SDS011;38044;45.148;39.604;2023-12-20T06:24:02;12.73;;;4.53;;
52031;SDS011;38044;45.148;39.604;2023-12-20T06:26:28;6.22;;;2.80;;
52031;SDS011;38044;45.148;39.604;2023-12-20T06:28:54;4.85;;;3.38;;
52031;SDS011;38044;45.148;39.604;2023-12-20T06:31:20;7.25;;;3.40;;
52031;SDS011;38044;45.148;39.604;2023-12-20T06:33:46;5.07;;;3.17;;
52031;SDS011;38044;45.148;39.604;2023-12-20T06:36:13;6.93;;;3.33;;
52031;SDS011;38044;45.148;39.604;2023-12-20T06:38:39;5.07;;;2.75;;
52031;SDS011;38044;45.148;39.604;2023-12-20T06:41:07;5.05;;;2.78;;
52031;SDS011;38044;45.148;39.604;2023-12-20T06:43:33;4.78;;;2.85;;
52031;SDS011;38044;45.148;39.604;2023-12-20T06:46:02;5.60;;;2.88;;
52031;SDS011;38044;45.148;39.604;2023-12-20T06:48:28;4.65;;;2.63;;
52031;SDS011;38044;45.148;39.604;2023-12-20T06:50:53;3.95;;;2.38;;
52031;SDS011;38044;45.148;39.604;2023-12-20T06:53:19;4.20;;;2.53;;
52031;SDS011;38044;45.148;39.604;2023-12-20T06:55:45;3.65;;;2.63;;
52031;SDS011;38044;45.148;39.604;2023-12-20T06:58:11;5.97;;;2.75;;
52031;SDS011;38044;45.148;39.604;2023-12-20T07:00:37;4.90;;;3.35;;
52031;SDS011;38044;45.148;39.604;2023-12-20T07:03:03;4.03;;;2.83;;
52031;SDS011;38044;45.148;39.604;2023-12-20T07:05:29;6.28;;;2.70;;
52031;SDS011;38044;45.148;39.604;2023-12-20T07:07:55;5.32;;;2.55;;
52031;SDS011;38044;45.148;39.604;2023-12-20T07:10:20;7.25;;;3.47;;
52031;SDS011;38044;45.148;39.604;2023-12-20T07:12:46;4.90;;;2.72;;
52031;SDS011;38044;45.148;39.604;2023-12-20T07:15:14;6.60;;;3.05;;
52031;SDS011;38044;45.148;39.604;2023-12-20T07:17:39;5.07;;;2.80;;
52031;SDS011;38044;45.148;39.604;2023-12-20T07:20:06;5.45;;;2.55;;
52031;SDS011;38044;45.148;39.604;2023-12-20T07:22:34;7.75;;;2.30;;
52031;SDS011;38044;45.148;39.604;2023-12-20T07:25:01;7.03;;;2.88;;
52031;SDS011;38044;45.148;39.604;2023-12-20T07:27:27;4.50;;;3.00;;
52031;SDS011;38044;45.148;39.604;2023-12-20T07:29:53;5.68;;;3.03;;
52031;SDS011;38044;45.148;39.604;2023-12-20T07:32:19;5.10;;;2.63;;
52031;SDS011;38044;45.148;39.604;2023-12-20T07:34:44;5.45;;;2.45;;
52031;SDS011;38044;45.148;39.604;2023-12-20T07:37:10;8.63;;;2.83;;
52031;SDS011;38044;45.148;39.604;2023-12-20T07:39:40;3.08;;;2.13;;
52031;SDS011;38044;45.148;39.604;2023-12-20T07:42:09;4.57;;;2.67;;
52031;SDS011;38044;45.148;39.604;2023-12-20T07:44:35;3.28;;;2.42;;
52031;SDS011;38044;45.148;39.604;2023-12-20T07:47:01;3.67;;;2.35;;
52031;SDS011;38044;45.148;39.604;2023-12-20T07:49:27;2.50;;;1.95;;
52031;SDS011;38044;45.148;39.604;2023-12-20T07:51:53;5.93;;;2.33;;
52031;SDS011;38044;45.148;39.604;2023-12-20T07:54:19;2.97;;;1.95;;
52031;SDS011;38044;45.148;39.604;2023-12-20T07:56:46;4.63;;;2.10;;
52031;SDS011;38044;45.148;39.604;2023-12-20T07:59:12;11.23;;;2.58;;
52031;SDS011;38044;45.148;39.604;2023-12-20T08:01:38;5.30;;;2.20;;
52031;SDS011;38044;45.148;39.604;2023-12-20T08:04:04;3.47;;;2.05;;
52031;SDS011;38044;45.148;39.604;2023-12-20T08:06:29;4.95;;;2.17;;
52031;SDS011;38044;45.148;39.604;2023-12-20T08:08:55;3.38;;;1.98;;
52031;SDS011;38044;45.148;39.604;2023-12-20T08:11:22;3.97;;;1.95;;
52031;SDS011;38044;45.148;39.604;2023-12-20T08:13:48;4.03;;;1.70;;
52031;SDS011;38044;45.148;39.604;2023-12-20T08:16:14;7.53;;;2.15;;
52031;SDS011;38044;45.148;39.604;2023-12-20T08:18:42;3.55;;;1.67;;
52031;SDS011;38044;45.148;39.604;2023-12-20T08:21:08;3.97;;;1.75;;
52031;SDS011;38044;45.148;39.604;2023-12-20T08:23:34;3.22;;;1.92;;
52031;SDS011;38044;45.148;39.604;2023-12-20T08:26:07;2.47;;;2.05;;
52031;SDS011;38044;45.148;39.604;2023-12-20T08:28:33;6.45;;;1.70;;
52031;SDS011;38044;45.148;39.604;2023-12-20T08:30:59;2.92;;;1.80;;
52031;SDS011;38044;45.148;39.604;2023-12-20T08:33:25;3.40;;;2.03;;
52031;SDS011;38044;45.148;39.604;2023-12-20T08:35:51;7.35;;;3.47;;
52031;SDS011;38044;45.148;39.604;2023-12-20T08:38:17;6.43;;;4.10;;
52031;SDS011;38044;45.148;39.604;2023-12-20T08:40:43;9.93;;;3.75;;
52031;SDS011;38044;45.148;39.604;2023-12-20T08:43:10;6.50;;;3.40;;
52031;SDS011;38044;45.148;39.604;2023-12-20T08:45:36;7.22;;;3.10;;
52031;SDS011;38044;45.148;39.604;2023-12-20T08:48:04;5.40;;;3.13;;
52031;SDS011;38044;45.148;39.604;2023-12-20T08:50:30;6.00;;;3.20;;
52031;SDS011;38044;45.148;39.604;2023-12-20T08:52:56;4.07;;;2.97;;
52031;SDS011;38044;45.148;39.604;2023-12-20T08:55:22;5.55;;;3.20;;
52031;SDS011;38044;45.148;39.604;2023-12-20T08:57:48;5.22;;;3.33;;
52031;SDS011;38044;45.148;39.604;2023-12-20T09:00:15;6.70;;;2.60;;
52031;SDS011;38044;45.148;39.604;2023-12-20T09:02:41;6.25;;;2.75;;
52031;SDS011;38044;45.148;39.604;2023-12-20T09:05:07;4.82;;;3.00;;
52031;SDS011;38044;45.148;39.604;2023-12-20T09:07:33;7.03;;;3.80;;
52031;SDS011;38044;45.148;39.604;2023-12-20T09:10:00;6.30;;;3.40;;
52031;SDS011;38044;45.148;39.604;2023-12-20T09:12:25;4.68;;;3.08;;
52031;SDS011;38044;45.148;39.604;2023-12-20T09:14:52;4.78;;;3.05;;
52031;SDS011;38044;45.148;39.604;2023-12-20T09:17:18;6.05;;;3.33;;
52031;SDS011;38044;45.148;39.604;2023-12-20T09:19:45;4.43;;;3.28;;
52031;SDS011;38044;45.148;39.604;2023-12-20T09:22:11;7.43;;;3.45;;
52031;SDS011;38044;45.148;39.604;2023-12-20T09:24:38;5.65;;;3.30;;
52031;SDS011;38044;45.148;39.604;2023-12-20T09:27:04;4.50;;;3.00;;
52031;SDS011;38044;45.148;39.604;2023-12-20T09:29:30;5.53;;;3.38;;
52031;SDS011;38044;45.148;39.604;2023-12-20T09:31:57;8.52;;;3.40;;
52031;SDS011;38044;45.148;39.604;2023-12-20T09:34:23;6.63;;;3.30;;
52031;SDS011;38044;45.148;39.604;2023-12-20T09:36:51;6.00;;;3.45;;
52031;SDS011;38044;45.148;39.604;2023-12-20T09:39:17;8.48;;;3.70;;
52031;SDS011;38044;45.148;39.604;2023-12-20T09:42:21;10.73;;;4.30;;
52031;SDS011;38044;45.148;39.604;2023-12-20T09:44:42;7.18;;;3.90;;
52031;SDS011;38044;45.148;39.604;2023-12-20T09:47:09;7.07;;;4.05;;
52031;SDS011;38044;45.148;39.604;2023-12-20T09:49:35;9.93;;;4.07;;
52031;SDS011;38044;45.148;39.604;2023-12-20T09:52:03;6.10;;;3.50;;
52031;SDS011;38044;45.148;39.604;2023-12-20T09:54:33;3.95;;;2.75;;
52031;SDS011;38044;45.148;39.604;2023-12-20T09:56:59;5.72;;;2.65;;
52031;SDS011;38044;45.148;39.604;2023-12-20T09:59:25;4.93;;;2.90;;
52031;SDS011;38044;45.148;39.604;2023-12-20T10:01:51;4.55;;;3.10;;
52031;SDS011;38044;45.148;39.604;2023-12-20T10:04:18;9.13;;;2.90;;
52031;SDS011;38044;45.148;39.604;2023-12-20T10:06:45;5.68;;;2.50;;
52031;SDS011;38044;45.148;39.604;2023-12-20T10:09:11;4.55;;;2.65;;
52031;SDS011;38044;45.148;39.604;2023-12-20T10:11:37;6.55;;;2.40;;
52031;SDS011;38044;45.148;39.604;2023-12-20T10:14:05;10.05;;;2.70;;
52031;SDS011;38044;45.148;39.604;2023-12-20T10:16:31;3.53;;;2.13;;
52031;SDS011;38044;45.148;39.604;2023-12-20T10:18:58;5.53;;;2.05;;
52031;SDS011;38044;45.148;39.604;2023-12-20T10:21:26;4.53;;;1.70;;
52031;SDS011;38044;45.148;39.604;2023-12-20T10:23:56;4.75;;;1.70;;
52031;SDS011;38044;45.148;39.604;2023-12-20T10:26:23;2.65;;;1.52;;
52031;SDS011;38044;45.148;39.604;2023-12-20T10:28:53;4.60;;;1.60;;
52031;SDS011;38044;45.148;39.604;2023-12-20T10:31:30;3.88;;;1.00;;
52031;SDS011;38044;45.148;39.604;2023-12-20T10:33:57;4.47;;;1.30;;
52031;SDS011;38044;45.148;39.604;2023-12-20T10:36:25;2.30;;;1.40;;
52031;SDS011;38044;45.148;39.604;2023-12-20T10:38:55;3.58;;;1.58;;
52031;SDS011;38044;45.148;39.604;2023-12-20T10:41:25;1.98;;;1.10;;
52031;SDS011;38044;45.148;39.604;2023-12-20T10:46:26;1.55;;;0.98;;
52031;SDS011;38044;45.148;39.604;2023-12-20T10:48:54;8.32;;;0.93;;
52031;SDS011;38044;45.148;39.604;2023-12-20T10:51:20;4.75;;;1.13;;
52031;SDS011;38044;45.148;39.604;2023-12-20T10:53:48;4.47;;;0.90;;
52031;SDS011;38044;45.148;39.604;2023-12-20T10:56:18;1.70;;;0.80;;
52031;SDS011;38044;45.148;39.604;2023-12-20T10:58:45;4.40;;;1.00;;
52031;SDS011;38044;45.148;39.604;2023-12-20T11:01:12;2.10;;;0.80;;
52031;SDS011;38044;45.148;39.604;2023-12-20T11:03:42;2.60;;;0.80;;
52031;SDS011;38044;45.148;39.604;2023-12-20T11:06:26;1.83;;;0.80;;
52031;SDS011;38044;45.148;39.604;2023-12-20T11:15:06;5.13;;;0.63;;
52031;SDS011;38044;45.148;39.604;2023-12-20T11:17:33;2.78;;;0.60;;
52031;SDS011;38044;45.148;39.604;2023-12-20T11:22:27;1.85;;;0.82;;
52031;SDS011;38044;45.148;39.604;2023-12-20T11:25:02;2.60;;;0.90;;
52031;SDS011;38044;45.148;39.604;2023-12-20T11:27:30;1.42;;;0.77;;
52031;SDS011;38044;45.148;39.604;2023-12-20T11:29:56;3.15;;;1.00;;
52031;SDS011;38044;45.148;39.604;2023-12-20T11:37:37;3.42;;;0.73;;
52031;SDS011;38044;45.148;39.604;2023-12-20T11:40:08;6.53;;;1.00;;
52031;SDS011;38044;45.148;39.604;2023-12-20T11:42:41;5.07;;;1.25;;
52031;SDS011;38044;45.148;39.604;2023-12-20T11:45:12;2.55;;;0.80;;
52031;SDS011;38044;45.148;39.604;2023-12-20T11:47:42;1.65;;;1.00;;
52031;SDS011;38044;45.148;39.604;2023-12-20T11:50:10;3.17;;;0.90;;
52031;SDS011;38044;45.148;39.604;2023-12-20T11:52:36;5.47;;;1.25;;
52031;SDS011;38044;45.148;39.604;2023-12-20T11:55:02;8.20;;;1.63;;
52031;SDS011;38044;45.148;39.604;2023-12-20T11:57:29;2.50;;;0.70;;
52031;SDS011;38044;45.148;39.604;2023-12-20T11:59:55;6.35;;;1.27;;
52031;SDS011;38044;45.148;39.604;2023-12-20T12:02:22;5.00;;;1.55;;
52031;SDS011;38044;45.148;39.604;2023-12-20T12:04:49;11.23;;;1.95;;
52031;SDS011;38044;45.148;39.604;2023-12-20T12:07:18;3.83;;;1.42;;
52031;SDS011;38044;45.148;39.604;2023-12-20T12:09:45;11.60;;;1.77;;
52031;SDS011;38044;45.148;39.604;2023-12-20T12:12:12;5.35;;;1.15;;
52031;SDS011;38044;45.148;39.604;2023-12-20T12:14:39;4.88;;;0.93;;
52031;SDS011;38044;45.148;39.604;2023-12-20T12:17:11;6.22;;;0.95;;
52031;SDS011;38044;45.148;39.604;2023-12-20T12:19:38;5.85;;;1.30;;
52031;SDS011;38044;45.148;39.604;2023-12-20T12:22:05;7.72;;;1.08;;
52031;SDS011;38044;45.148;39.604;2023-12-20T12:24:46;4.63;;;1.00;;
52031;SDS011;38044;45.148;39.604;2023-12-20T12:27:13;3.95;;;1.60;;
52031;SDS011;38044;45.148;39.604;2023-12-20T12:29:39;4.25;;;1.80;;
52031;SDS011;38044;45.148;39.604;2023-12-20T12:32:09;4.00;;;1.15;;
52031;SDS011;38044;45.148;39.604;2023-12-20T12:34:35;4.05;;;1.40;;
52031;SDS011;38044;45.148;39.604;2023-12-20T12:37:01;7.10;;;1.77;;
52031;SDS011;38044;45.148;39.604;2023-12-20T12:39:29;6.32;;;1.25;;
52031;SDS011;38044;45.148;39.604;2023-12-20T12:41:55;5.80;;;2.20;;
52031;SDS011;38044;45.148;39.604;2023-12-20T12:44:22;3.53;;;1.33;;
52031;SDS011;38044;45.148;39.604;2023-12-20T12:46:51;4.38;;;1.05;;
52031;SDS011;38044;45.148;39.604;2023-12-20T12:49:19;6.03;;;1.00;;
52031;SDS011;38044;45.148;39.604;2023-12-20T12:51:46;4.60;;;1.10;;
52031;SDS011;38044;45.148;39.604;2023-12-20T12:54:13;2.95;;;1.10;;
52031;SDS011;38044;45.148;39.604;2023-12-20T12:56:40;5.68;;;1.15;;
52031;SDS011;38044;45.148;39.604;2023-12-20T12:59:07;6.75;;;1.58;;
52031;SDS011;38044;45.148;39.604;2023-12-20T13:01:33;3.10;;;2.28;;
52031;SDS011;38044;45.148;39.604;2023-12-20T13:03:59;4.97;;;1.42;;
52031;SDS011;38044;45.148;39.604;2023-12-20T13:06:28;5.82;;;1.58;;
52031;SDS011;38044;45.148;39.604;2023-12-20T13:08:54;4.90;;;1.50;;
52031;SDS011;38044;45.148;39.604;2023-12-20T13:11:20;6.82;;;1.77;;
52031;SDS011;38044;45.148;39.604;2023-12-20T13:13:46;11.13;;;2.15;;
52031;SDS011;38044;45.148;39.604;2023-12-20T13:16:12;3.67;;;1.50;;
52031;SDS011;38044;45.148;39.604;2023-12-20T13:18:38;6.32;;;1.60;;
52031;SDS011;38044;45.148;39.604;2023-12-20T13:21:08;5.40;;;1.27;;
52031;SDS011;38044;45.148;39.604;2023-12-20T13:23:34;7.95;;;1.63;;
52031;SDS011;38044;45.148;39.604;2023-12-20T13:26:01;3.55;;;1.30;;
52031;SDS011;38044;45.148;39.604;2023-12-20T13:28:28;11.60;;;1.20;;
52031;SDS011;38044;45.148;39.604;2023-12-20T13:30:54;4.68;;;1.10;;
52031;SDS011;38044;45.148;39.604;2023-12-20T13:33:20;5.90;;;1.58;;
52031;SDS011;38044;45.148;39.604;2023-12-20T13:35:46;5.88;;;1.33;;
52031;SDS011;38044;45.148;39.604;2023-12-20T13:38:12;4.72;;;1.40;;
52031;SDS011;38044;45.148;39.604;2023-12-20T13:40:39;4.63;;;1.40;;
52031;SDS011;38044;45.148;39.604;2023-12-20T13:43:05;8.35;;;1.55;;
52031;SDS011;38044;45.148;39.604;2023-12-20T13:45:31;10.45;;;2.25;;
52031;SDS011;38044;45.148;39.604;2023-12-20T13:47:57;12.57;;;2.33;;
52031;SDS011;38044;45.148;39.604;2023-12-20T13:50:24;10.45;;;2.08;;
52031;SDS011;38044;45.148;39.604;2023-12-20T13:52:51;8.05;;;2.00;;
52031;SDS011;38044;45.148;39.604;2023-12-20T13:55:17;7.78;;;2.60;;
52031;SDS011;38044;45.148;39.604;2023-12-20T13:57:46;10.38;;;2.55;;
52031;SDS011;38044;45.148;39.604;2023-12-20T14:00:13;11.13;;;3.08;;
52031;SDS011;38044;45.148;39.604;2023-12-20T14:02:42;12.82;;;3.85;;
52031;SDS011;38044;45.148;39.604;2023-12-20T14:05:08;12.38;;;4.18;;
52031;SDS011;38044;45.148;39.604;2023-12-20T14:07:39;12.32;;;4.57;;
52031;SDS011;38044;45.148;39.604;2023-12-20T14:10:05;16.40;;;4.68;;
52031;SDS011;38044;45.148;39.604;2023-12-20T14:12:31;16.67;;;4.00;;
52031;SDS011;38044;45.148;39.604;2023-12-20T14:15:00;11.93;;;3.85;;
52031;SDS011;38044;45.148;39.604;2023-12-20T14:17:26;6.38;;;3.22;;
52031;SDS011;38044;45.148;39.604;2023-12-20T14:19:52;13.20;;;3.80;;
52031;SDS011;38044;45.148;39.604;2023-12-20T14:22:19;9.25;;;2.60;;
52031;SDS011;38044;45.148;39.604;2023-12-20T14:24:45;9.27;;;3.22;;
52031;SDS011;38044;45.148;39.604;2023-12-20T14:27:11;16.92;;;3.58;;
52031;SDS011;38044;45.148;39.604;2023-12-20T14:29:38;12.68;;;2.88;;
52031;SDS011;38044;45.148;39.604;2023-12-20T14:32:04;10.55;;;2.75;;
52031;SDS011;38044;45.148;39.604;2023-12-20T14:34:31;19.25;;;4.18;;
52031;SDS011;38044;45.148;39.604;2023-12-20T14:36:57;16.33;;;4.00;;
52031;SDS011;38044;45.148;39.604;2023-12-20T14:39:23;25.00;;;4.07;;